PWSweather.com
Personal Weather Stations
Station Observations
N6QIH
Larry & Sandy Wx Now Hawaii, Ewa Beach, HI 96706

Larry & Sandy Wx Now HawaiiEwa Beach, HI 96706

Lat: 21.327716, Lon: -158.028032

Elevation: 29

Station Type: Davis Pro 2 Solar

http://www.CoCoRAHS.org

High Low Average
Temperature 78.5°F25.8°C 68.6°F20.3°C 72.3°F22.4°C
Dew Point 70.7°F21.5°C 64.8°F18.2°C 67.3°F19.6°C
Winds 11.8 mph 19.0 kmh Calm Calm 6.0 mph WSW9.7 kmh WSW
Wind Gusts 22.0 mph35.4 kmh -- 9.0 mph14.5 kmh
Humidity 92% 72% 85%
Pressure 29.84 in1010.5 mb 29.77 in1008.1 mb -
Precipitation 0.25 in6.4 mm - -
Hour Temp Dew Point Humidity Winds Wind Gusts Pressure Precip Precip Rate Daily Precip Total
12:00 AM 69.3°F20.7°C 66.9°F19.4°C 92% 1.0 mph NW1.6 kmh NW 2.0 mph3.2 kmh 29.83 in1010.2 mb 0.00 in0.0 mm 0.00 in/hr0.0 mm/hr 0.00 in0.0 mm
12:10 AM 69.8°F21.0°C 67.4°F19.7°C 92% 0.4 mph WNW0.6 kmh WNW 3.0 mph4.8 kmh 29.83 in1010.2 mb 0.00 in0.0 mm 0.00 in/hr0.0 mm/hr 0.00 in0.0 mm
12:20 AM 70.1°F21.2°C 67.0°F19.4°C 90% 5.8 mph NW9.3 kmh NW 6.0 mph9.7 kmh 29.83 in1010.2 mb 0.00 in0.0 mm 0.00 in/hr0.0 mm/hr 0.00 in0.0 mm
12:30 AM 69.4°F20.8°C 65.3°F18.5°C 87% 4.0 mph NW6.4 kmh NW 7.0 mph11.3 kmh 29.83 in1010.2 mb 0.00 in0.0 mm 0.00 in/hr0.0 mm/hr 0.00 in0.0 mm
12:40 AM 68.8°F20.4°C 64.8°F18.2°C 87% 1.5 mph W2.4 kmh W 3.0 mph4.8 kmh 29.82 in1009.8 mb 0.00 in0.0 mm 0.00 in/hr0.0 mm/hr 0.00 in0.0 mm
12:50 AM 68.6°F20.3°C 64.9°F18.3°C 88% 0.3 mph W0.5 kmh W 2.0 mph3.2 kmh 29.82 in1009.8 mb 0.00 in0.0 mm 0.00 in/hr0.0 mm/hr 0.00 in0.0 mm
01:00 AM 68.6°F20.3°C 65.2°F18.4°C 89% 0.1 mph W0.2 kmh W 1.0 mph1.6 kmh 29.82 in1009.8 mb 0.00 in0.0 mm 0.00 in/hr0.0 mm/hr 0.00 in0.0 mm
01:10 AM 69.3°F20.7°C 66.2°F19.0°C 90% Calm Calm -- 29.82 in1009.8 mb 0.00 in0.0 mm 0.00 in/hr0.0 mm/hr 0.00 in0.0 mm
01:20 AM 69.6°F20.9°C 66.5°F19.2°C 90% 3.3 mph WSW5.3 kmh WSW 8.0 mph12.9 kmh 29.82 in1009.8 mb 0.00 in0.0 mm 0.00 in/hr0.0 mm/hr 0.00 in0.0 mm
01:30 AM 69.6°F20.9°C 66.2°F19.0°C 89% 4.0 mph WNW6.4 kmh WNW 6.0 mph9.7 kmh 29.82 in1009.8 mb 0.00 in0.0 mm 0.00 in/hr0.0 mm/hr 0.00 in0.0 mm
01:40 AM 69.6°F20.9°C 66.2°F19.0°C 89% 3.9 mph NW6.3 kmh NW 9.0 mph14.5 kmh 29.82 in1009.8 mb 0.00 in0.0 mm 0.00 in/hr0.0 mm/hr 0.00 in0.0 mm
01:50 AM 69.4°F20.8°C 66.0°F18.9°C 89% 0.5 mph NW0.8 kmh NW 4.0 mph6.4 kmh 29.82 in1009.8 mb 0.00 in0.0 mm 0.00 in/hr0.0 mm/hr 0.00 in0.0 mm
02:00 AM 69.4°F20.8°C 66.3°F19.1°C 90% 0.4 mph NW0.6 kmh NW 1.0 mph1.6 kmh 29.81 in1009.5 mb 0.00 in0.0 mm 0.00 in/hr0.0 mm/hr 0.00 in0.0 mm
02:10 AM 69.4°F20.8°C 66.3°F19.1°C 90% Calm Calm -- 29.81 in1009.5 mb 0.00 in0.0 mm 0.00 in/hr0.0 mm/hr 0.00 in0.0 mm
02:20 AM 69.4°F20.8°C 66.7°F19.3°C 91% 1.4 mph NW2.3 kmh NW 3.0 mph4.8 kmh 29.80 in1009.1 mb 0.00 in0.0 mm 0.00 in/hr0.0 mm/hr 0.00 in0.0 mm
02:30 AM 69.7°F20.9°C 67.0°F19.4°C 91% 2.8 mph SW4.5 kmh SW 3.0 mph4.8 kmh 29.80 in1009.1 mb 0.00 in0.0 mm 0.00 in/hr0.0 mm/hr 0.00 in0.0 mm
02:40 AM 69.9°F21.1°C 67.5°F19.7°C 92% 0.7 mph SW1.1 kmh SW 2.0 mph3.2 kmh 29.80 in1009.1 mb 0.00 in0.0 mm 0.00 in/hr0.0 mm/hr 0.00 in0.0 mm
02:50 AM 70.1°F21.2°C 67.7°F19.8°C 92% 2.7 mph WSW4.3 kmh WSW 4.0 mph6.4 kmh 29.79 in1008.8 mb 0.00 in0.0 mm 0.00 in/hr0.0 mm/hr 0.00 in0.0 mm
03:00 AM 70.3°F21.3°C 67.5°F19.7°C 91% 1.8 mph SW2.9 kmh SW 3.0 mph4.8 kmh 29.79 in1008.8 mb 0.00 in0.0 mm 0.00 in/hr0.0 mm/hr 0.00 in0.0 mm
03:10 AM 70.6°F21.4°C 67.8°F19.9°C 91% 3.2 mph SW5.1 kmh SW 5.0 mph8.0 kmh 29.79 in1008.8 mb 0.00 in0.0 mm 0.00 in/hr0.0 mm/hr 0.00 in0.0 mm
03:20 AM 70.8°F21.6°C 67.7°F19.8°C 90% 3.8 mph SW6.1 kmh SW 5.0 mph8.0 kmh 29.78 in1008.5 mb 0.00 in0.0 mm 0.00 in/hr0.0 mm/hr 0.00 in0.0 mm
03:30 AM 70.9°F21.6°C 67.8°F19.9°C 90% 4.6 mph W7.4 kmh W 9.0 mph14.5 kmh 29.78 in1008.5 mb 0.00 in0.0 mm 0.00 in/hr0.0 mm/hr 0.00 in0.0 mm
03:40 AM 71.3°F21.8°C 68.2°F20.1°C 90% 4.6 mph WSW7.4 kmh WSW 7.0 mph11.3 kmh 29.78 in1008.5 mb 0.00 in0.0 mm 0.00 in/hr0.0 mm/hr 0.00 in0.0 mm
03:50 AM 70.9°F21.6°C 67.5°F19.7°C 89% 4.5 mph W7.2 kmh W 7.0 mph11.3 kmh 29.77 in1008.1 mb 0.00 in0.0 mm 0.00 in/hr0.0 mm/hr 0.00 in0.0 mm
04:00 AM 70.9°F21.6°C 66.8°F19.3°C 87% 5.5 mph W8.9 kmh W 7.0 mph11.3 kmh 29.78 in1008.5 mb 0.00 in0.0 mm 0.00 in/hr0.0 mm/hr 0.00 in0.0 mm
04:10 AM 71.1°F21.7°C 66.7°F19.3°C 86% 4.6 mph NW7.4 kmh NW 6.0 mph9.7 kmh 29.78 in1008.5 mb 0.00 in0.0 mm 0.00 in/hr0.0 mm/hr 0.00 in0.0 mm
04:20 AM 71.3°F21.8°C 66.9°F19.4°C 86% 2.4 mph WSW3.9 kmh WSW 3.0 mph4.8 kmh 29.78 in1008.5 mb 0.00 in0.0 mm 0.00 in/hr0.0 mm/hr 0.00 in0.0 mm
04:30 AM 71.6°F22.0°C 67.2°F19.6°C 86% 5.9 mph WSW9.5 kmh WSW 9.0 mph14.5 kmh 29.78 in1008.5 mb 0.00 in0.0 mm 0.00 in/hr0.0 mm/hr 0.00 in0.0 mm
04:40 AM 71.8°F22.1°C 67.4°F19.7°C 86% 5.1 mph SW8.2 kmh SW 12.0 mph19.3 kmh 29.78 in1008.5 mb 0.00 in0.0 mm 0.00 in/hr0.0 mm/hr 0.00 in0.0 mm
04:50 AM 71.5°F21.9°C 67.4°F19.7°C 87% 5.3 mph WSW8.5 kmh WSW 7.0 mph11.3 kmh 29.77 in1008.1 mb 0.01 in0.3 mm 0.06 in/hr1.5 mm/hr 0.01 in0.3 mm
05:00 AM 71.6°F22.0°C 67.2°F19.6°C 86% 5.3 mph WSW8.5 kmh WSW 7.0 mph11.3 kmh 29.77 in1008.1 mb 0.00 in0.0 mm 0.00 in/hr0.0 mm/hr 0.01 in0.3 mm
05:10 AM 71.8°F22.1°C 67.4°F19.7°C 86% 6.8 mph W10.9 kmh W 11.0 mph17.7 kmh 29.77 in1008.1 mb 0.00 in0.0 mm 0.00 in/hr0.0 mm/hr 0.01 in0.3 mm
05:20 AM 71.5°F21.9°C 66.4°F19.1°C 84% 5.1 mph W8.2 kmh W 11.0 mph17.7 kmh 29.77 in1008.1 mb 0.00 in0.0 mm 0.00 in/hr0.0 mm/hr 0.01 in0.3 mm
05:30 AM 71.6°F22.0°C 66.5°F19.2°C 84% 4.9 mph WSW7.9 kmh WSW 7.0 mph11.3 kmh 29.77 in1008.1 mb 0.00 in0.0 mm 0.00 in/hr0.0 mm/hr 0.01 in0.3 mm
05:40 AM 71.8°F22.1°C 66.7°F19.3°C 84% 4.7 mph WSW7.6 kmh WSW 7.0 mph11.3 kmh 29.77 in1008.1 mb 0.00 in0.0 mm 0.00 in/hr0.0 mm/hr 0.01 in0.3 mm
05:50 AM 71.8°F22.1°C 66.4°F19.1°C 83% 6.2 mph WSW10.0 kmh WSW 12.0 mph19.3 kmh 29.78 in1008.5 mb 0.00 in0.0 mm 0.00 in/hr0.0 mm/hr 0.01 in0.3 mm
06:00 AM 71.8°F22.1°C 66.4°F19.1°C 83% 5.1 mph WNW8.2 kmh WNW 7.0 mph11.3 kmh 29.78 in1008.5 mb 0.00 in0.0 mm 0.00 in/hr0.0 mm/hr 0.01 in0.3 mm
06:10 AM 72.0°F22.2°C 66.2°F19.0°C 82% 5.0 mph WSW8.0 kmh WSW 9.0 mph14.5 kmh 29.78 in1008.5 mb 0.00 in0.0 mm 0.00 in/hr0.0 mm/hr 0.01 in0.3 mm
06:20 AM 71.8°F22.1°C 66.0°F18.9°C 82% 7.2 mph WSW11.6 kmh WSW 12.0 mph19.3 kmh 29.78 in1008.5 mb 0.00 in0.0 mm 0.00 in/hr0.0 mm/hr 0.01 in0.3 mm
06:30 AM 72.3°F22.4°C 66.1°F18.9°C 81% 7.2 mph WSW11.6 kmh WSW 10.0 mph16.1 kmh 29.78 in1008.5 mb 0.00 in0.0 mm 0.00 in/hr0.0 mm/hr 0.01 in0.3 mm
06:40 AM 72.5°F22.5°C 66.0°F18.9°C 80% 8.1 mph WSW13.0 kmh WSW 12.0 mph19.3 kmh 29.78 in1008.5 mb 0.00 in0.0 mm 0.00 in/hr0.0 mm/hr 0.01 in0.3 mm
06:50 AM 72.7°F22.6°C 66.5°F19.2°C 81% 6.0 mph WSW9.7 kmh WSW 14.0 mph22.5 kmh 29.79 in1008.8 mb 0.00 in0.0 mm 0.00 in/hr0.0 mm/hr 0.01 in0.3 mm
07:00 AM 72.5°F22.5°C 66.0°F18.9°C 80% 5.8 mph SW9.3 kmh SW 7.0 mph11.3 kmh 29.79 in1008.8 mb 0.00 in0.0 mm 0.00 in/hr0.0 mm/hr 0.01 in0.3 mm
07:10 AM 72.3°F22.4°C 65.8°F18.8°C 80% 4.9 mph WSW7.9 kmh WSW 12.0 mph19.3 kmh 29.79 in1008.8 mb 0.00 in0.0 mm 0.00 in/hr0.0 mm/hr 0.01 in0.3 mm
07:20 AM 72.5°F22.5°C 66.0°F18.9°C 80% 3.8 mph WSW6.1 kmh WSW 6.0 mph9.7 kmh 29.79 in1008.8 mb 0.00 in0.0 mm 0.00 in/hr0.0 mm/hr 0.01 in0.3 mm
07:30 AM 72.7°F22.6°C 66.2°F19.0°C 80% 6.5 mph WSW10.5 kmh WSW 19.0 mph30.6 kmh 29.79 in1008.8 mb 0.00 in0.0 mm 0.00 in/hr0.0 mm/hr 0.01 in0.3 mm
07:40 AM 71.8°F22.1°C 66.3°F19.1°C 83% 9.4 mph SW15.1 kmh SW 13.0 mph20.9 kmh 29.79 in1008.8 mb 0.00 in0.0 mm 0.00 in/hr0.0 mm/hr 0.01 in0.3 mm
07:50 AM 72.0°F22.2°C 66.9°F19.4°C 84% 8.4 mph S13.5 kmh S 10.0 mph16.1 kmh 29.80 in1009.1 mb 0.00 in0.0 mm 0.00 in/hr0.0 mm/hr 0.01 in0.3 mm
08:00 AM 72.6°F22.6°C 67.5°F19.7°C 84% 8.6 mph SSW13.8 kmh SSW 16.0 mph25.7 kmh 29.80 in1009.1 mb 0.00 in0.0 mm 0.00 in/hr0.0 mm/hr 0.01 in0.3 mm
08:10 AM 73.0°F22.8°C 67.9°F19.9°C 84% 10.1 mph SW16.3 kmh SW 16.0 mph25.7 kmh 29.80 in1009.1 mb 0.00 in0.0 mm 0.00 in/hr0.0 mm/hr 0.01 in0.3 mm
08:20 AM 73.3°F22.9°C 67.4°F19.7°C 82% 9.5 mph SSE15.3 kmh SSE 14.0 mph22.5 kmh 29.80 in1009.1 mb 0.00 in0.0 mm 0.00 in/hr0.0 mm/hr 0.01 in0.3 mm
08:30 AM 73.5°F23.1°C 67.7°F19.8°C 82% 7.1 mph WSW11.4 kmh WSW 13.0 mph20.9 kmh 29.80 in1009.1 mb 0.00 in0.0 mm 0.00 in/hr0.0 mm/hr 0.01 in0.3 mm
08:40 AM 74.0°F23.3°C 67.4°F19.7°C 80% 11.3 mph SW18.2 kmh SW 16.0 mph25.7 kmh 29.81 in1009.5 mb 0.00 in0.0 mm 0.00 in/hr0.0 mm/hr 0.01 in0.3 mm
08:50 AM 74.3°F23.5°C 67.4°F19.7°C 79% 10.9 mph SW17.5 kmh SW 16.0 mph25.7 kmh 29.80 in1009.1 mb 0.00 in0.0 mm 0.00 in/hr0.0 mm/hr 0.01 in0.3 mm
09:00 AM 72.8°F22.7°C 67.7°F19.8°C 84% 7.0 mph WSW11.3 kmh WSW 9.0 mph14.5 kmh 29.81 in1009.5 mb 0.00 in0.0 mm 0.00 in/hr0.0 mm/hr 0.01 in0.3 mm
09:10 AM 73.2°F22.9°C 67.7°F19.8°C 83% 9.2 mph SW14.8 kmh SW 13.0 mph20.9 kmh 29.82 in1009.8 mb 0.00 in0.0 mm 0.00 in/hr0.0 mm/hr 0.01 in0.3 mm
09:20 AM 73.9°F23.3°C 67.3°F19.6°C 80% 9.6 mph WSW15.4 kmh WSW 15.0 mph24.1 kmh 29.82 in1009.8 mb 0.00 in0.0 mm 0.00 in/hr0.0 mm/hr 0.01 in0.3 mm
09:30 AM 74.4°F23.6°C 67.8°F19.9°C 80% 7.4 mph SW11.9 kmh SW 13.0 mph20.9 kmh 29.82 in1009.8 mb 0.00 in0.0 mm 0.00 in/hr0.0 mm/hr 0.01 in0.3 mm
09:40 AM 73.9°F23.3°C 67.7°F19.8°C 81% 8.8 mph WSW14.2 kmh WSW 14.0 mph22.5 kmh 29.83 in1010.2 mb 0.00 in0.0 mm 0.00 in/hr0.0 mm/hr 0.01 in0.3 mm
09:50 AM 73.3°F22.9°C 67.8°F19.9°C 83% 7.7 mph SW12.4 kmh SW 11.0 mph17.7 kmh 29.83 in1010.2 mb 0.00 in0.0 mm 0.00 in/hr0.0 mm/hr 0.01 in0.3 mm
10:00 AM 73.1°F22.8°C 68.3°F20.2°C 85% 3.3 mph SSW5.3 kmh SSW 5.0 mph8.0 kmh 29.83 in1010.2 mb 0.01 in0.3 mm 0.01 in/hr0.3 mm/hr 0.02 in0.5 mm
10:10 AM 71.7°F22.1°C 68.0°F20.0°C 88% 9.9 mph WNW15.9 kmh WNW 16.0 mph25.7 kmh 29.84 in1010.5 mb 0.07 in1.8 mm 0.42 in/hr10.7 mm/hr 0.09 in2.3 mm
10:20 AM 70.3°F21.3°C 67.9°F19.9°C 92% 3.5 mph WSW5.6 kmh WSW 6.0 mph9.7 kmh 29.84 in1010.5 mb 0.08 in2.0 mm 0.48 in/hr12.2 mm/hr 0.15 in3.8 mm
10:30 AM 70.9°F21.6°C 68.5°F20.3°C 92% 6.1 mph W9.8 kmh W 10.0 mph16.1 kmh 29.84 in1010.5 mb 0.02 in0.5 mm 0.12 in/hr3.0 mm/hr 0.17 in4.3 mm
10:40 AM 71.8°F22.1°C 69.3°F20.7°C 92% 5.5 mph WSW8.9 kmh WSW 9.0 mph14.5 kmh 29.83 in1010.2 mb 0.01 in0.3 mm 0.06 in/hr1.5 mm/hr 0.17 in4.3 mm
10:50 AM 71.5°F21.9°C 68.4°F20.2°C 90% 4.1 mph NW6.6 kmh NW 6.0 mph9.7 kmh 29.83 in1010.2 mb 0.00 in0.0 mm 0.00 in/hr0.0 mm/hr 0.17 in4.3 mm
11:00 AM 73.0°F22.8°C 69.6°F20.9°C 89% 3.5 mph WSW5.6 kmh WSW 5.0 mph8.0 kmh 29.83 in1010.2 mb 0.00 in0.0 mm 0.00 in/hr0.0 mm/hr 0.17 in4.3 mm
11:10 AM 74.9°F23.8°C 70.7°F21.5°C 87% 7.8 mph SW12.6 kmh SW 13.0 mph20.9 kmh 29.82 in1009.8 mb 0.00 in0.0 mm 0.00 in/hr0.0 mm/hr 0.17 in4.3 mm
11:20 AM 75.6°F24.2°C 69.7°F20.9°C 82% 8.9 mph W14.3 kmh W 14.0 mph22.5 kmh 29.82 in1009.8 mb 0.00 in0.0 mm 0.00 in/hr0.0 mm/hr 0.17 in4.3 mm
11:30 AM 76.7°F24.8°C 70.0°F21.1°C 80% 7.2 mph SW11.6 kmh SW 12.0 mph19.3 kmh 29.82 in1009.8 mb 0.00 in0.0 mm 0.00 in/hr0.0 mm/hr 0.17 in4.3 mm
11:40 AM 76.5°F24.7°C 68.4°F20.2°C 76% 8.1 mph NW13.0 kmh NW 14.0 mph22.5 kmh 29.82 in1009.8 mb 0.00 in0.0 mm 0.00 in/hr0.0 mm/hr 0.17 in4.3 mm
11:50 AM 76.9°F24.9°C 69.5°F20.8°C 78% 9.8 mph SW15.8 kmh SW 12.0 mph19.3 kmh 29.82 in1009.8 mb 0.00 in0.0 mm 0.00 in/hr0.0 mm/hr 0.17 in4.3 mm
12:00 PM 76.7°F24.8°C 68.9°F20.5°C 77% 9.8 mph SW15.8 kmh SW 16.0 mph25.7 kmh 29.81 in1009.5 mb 0.00 in0.0 mm 0.00 in/hr0.0 mm/hr 0.17 in4.3 mm
12:10 PM 75.9°F24.4°C 68.9°F20.5°C 79% 8.7 mph WSW14.0 kmh WSW 11.0 mph17.7 kmh 29.81 in1009.5 mb 0.00 in0.0 mm 0.00 in/hr0.0 mm/hr 0.17 in4.3 mm
12:20 PM 75.9°F24.4°C 68.2°F20.1°C 77% 11.8 mph WSW19.0 kmh WSW 16.0 mph25.7 kmh 29.81 in1009.5 mb 0.00 in0.0 mm 0.00 in/hr0.0 mm/hr 0.17 in4.3 mm
12:30 PM 76.1°F24.5°C 68.0°F20.0°C 76% 11.2 mph WSW18.0 kmh WSW 19.0 mph30.6 kmh 29.80 in1009.1 mb 0.00 in0.0 mm 0.00 in/hr0.0 mm/hr 0.17 in4.3 mm
12:40 PM 76.1°F24.5°C 68.0°F20.0°C 76% 9.5 mph WSW15.3 kmh WSW 12.0 mph19.3 kmh 29.80 in1009.1 mb 0.00 in0.0 mm 0.00 in/hr0.0 mm/hr 0.17 in4.3 mm
12:50 PM 76.1°F24.5°C 67.6°F19.8°C 75% 9.4 mph WSW15.1 kmh WSW 14.0 mph22.5 kmh 29.79 in1008.8 mb 0.00 in0.0 mm 0.00 in/hr0.0 mm/hr 0.17 in4.3 mm
01:00 PM 76.5°F24.7°C 67.6°F19.8°C 74% 8.8 mph SW14.2 kmh SW 12.0 mph19.3 kmh 29.79 in1008.8 mb 0.00 in0.0 mm 0.00 in/hr0.0 mm/hr 0.17 in4.3 mm
01:10 PM 77.7°F25.4°C 68.0°F20.0°C 72% 10.5 mph NW16.9 kmh NW 22.0 mph35.4 kmh 29.77 in1008.1 mb 0.00 in0.0 mm 0.00 in/hr0.0 mm/hr 0.17 in4.3 mm
01:20 PM 78.5°F25.8°C 68.7°F20.4°C 72% 9.8 mph WSW15.8 kmh WSW 13.0 mph20.9 kmh 29.77 in1008.1 mb 0.00 in0.0 mm 0.00 in/hr0.0 mm/hr 0.17 in4.3 mm
01:30 PM 71.4°F21.9°C 67.0°F19.4°C 86% 10.9 mph NW17.5 kmh NW 15.0 mph24.1 kmh 29.78 in1008.5 mb 0.08 in2.0 mm 0.48 in/hr12.2 mm/hr 0.25 in6.4 mm
01:40 PM 71.3°F21.8°C 68.3°F20.2°C 90% 7.9 mph NW12.7 kmh NW 12.0 mph19.3 kmh 29.77 in1008.1 mb 0.02 in0.5 mm 0.12 in/hr3.0 mm/hr 0.26 in6.6 mm
01:50 PM 73.2°F22.9°C 69.7°F20.9°C 89% 12.8 mph W20.6 kmh W 19.0 mph30.6 kmh 29.76 in1007.8 mb 0.00 in0.0 mm 0.00 in/hr0.0 mm/hr 0.26 in6.6 mm
02:00 PM 73.8°F23.2°C 70.0°F21.1°C 88% 10.0 mph NW16.1 kmh NW 12.0 mph19.3 kmh 29.76 in1007.8 mb 0.01 in0.3 mm 0.01 in/hr0.3 mm/hr 0.27 in6.9 mm
02:10 PM 73.5°F23.1°C 68.4°F20.2°C 84% 10.6 mph WSW17.1 kmh WSW 15.0 mph24.1 kmh 29.76 in1007.8 mb 0.00 in0.0 mm 0.00 in/hr0.0 mm/hr 0.27 in6.9 mm
02:20 PM 74.2°F23.4°C 68.0°F20.0°C 81% 6.1 mph NW9.8 kmh NW 8.0 mph12.9 kmh 29.75 in1007.5 mb 0.00 in0.0 mm 0.00 in/hr0.0 mm/hr 0.27 in6.9 mm
02:30 PM 74.6°F23.7°C 67.7°F19.8°C 79% 8.8 mph WNW14.2 kmh WNW 18.0 mph29.0 kmh 29.75 in1007.5 mb 0.00 in0.0 mm 0.00 in/hr0.0 mm/hr 0.27 in6.9 mm
02:40 PM 75.1°F23.9°C 67.8°F19.9°C 78% 11.2 mph WNW18.0 kmh WNW 15.0 mph24.1 kmh 29.75 in1007.5 mb 0.00 in0.0 mm 0.00 in/hr0.0 mm/hr 0.27 in6.9 mm
02:50 PM 76.1°F24.5°C 67.6°F19.8°C 75% 12.6 mph WSW20.3 kmh WSW 16.0 mph25.7 kmh 29.75 in1007.5 mb 0.00 in0.0 mm 0.00 in/hr0.0 mm/hr 0.27 in6.9 mm
03:00 PM 75.6°F24.2°C 67.1°F19.5°C 75% 11.5 mph NW18.5 kmh NW 19.0 mph30.6 kmh 29.75 in1007.5 mb 0.00 in0.0 mm 0.00 in/hr0.0 mm/hr 0.27 in6.9 mm
03:10 PM 76.4°F24.7°C 67.1°F19.5°C 73% 8.4 mph NW13.5 kmh NW 16.0 mph25.7 kmh 29.75 in1007.5 mb 0.00 in0.0 mm 0.00 in/hr0.0 mm/hr 0.27 in6.9 mm
03:20 PM 76.6°F24.8°C 67.7°F19.8°C 74% 9.0 mph WNW14.5 kmh WNW 15.0 mph24.1 kmh 29.75 in1007.5 mb 0.00 in0.0 mm 0.00 in/hr0.0 mm/hr 0.27 in6.9 mm
03:30 PM 76.7°F24.8°C 66.2°F19.0°C 70% 10.2 mph W16.4 kmh W 15.0 mph24.1 kmh 29.75 in1007.5 mb 0.00 in0.0 mm 0.00 in/hr0.0 mm/hr 0.27 in6.9 mm
03:40 PM 76.1°F24.5°C 65.6°F18.7°C 70% 9.8 mph NW15.8 kmh NW 17.0 mph27.4 kmh 29.75 in1007.5 mb 0.00 in0.0 mm 0.00 in/hr0.0 mm/hr 0.27 in6.9 mm
03:50 PM 75.4°F24.1°C 64.9°F18.3°C 70% 8.9 mph WNW14.3 kmh WNW 16.0 mph25.7 kmh 29.75 in1007.5 mb 0.00 in0.0 mm 0.00 in/hr0.0 mm/hr 0.27 in6.9 mm
04:00 PM 75.8°F24.3°C 65.3°F18.5°C 70% 10.5 mph SW16.9 kmh SW 16.0 mph25.7 kmh 29.75 in1007.5 mb 0.00 in0.0 mm 0.00 in/hr0.0 mm/hr 0.27 in6.9 mm
04:10 PM 75.3°F24.1°C 66.0°F18.9°C 73% 5.9 mph NNW9.5 kmh NNW 7.0 mph11.3 kmh 29.75 in1007.5 mb 0.00 in0.0 mm 0.00 in/hr0.0 mm/hr 0.27 in6.9 mm
04:20 PM 74.6°F23.7°C 66.5°F19.2°C 76% 7.1 mph NW11.4 kmh NW 14.0 mph22.5 kmh 29.75 in1007.5 mb 0.00 in0.0 mm 0.00 in/hr0.0 mm/hr 0.27 in6.9 mm
04:30 PM 73.0°F22.8°C 66.8°F19.3°C 81% 6.6 mph NW10.6 kmh NW 11.0 mph17.7 kmh 29.76 in1007.8 mb 0.00 in0.0 mm 0.00 in/hr0.0 mm/hr 0.27 in6.9 mm
04:40 PM 71.6°F22.0°C 67.5°F19.7°C 87% 5.7 mph W9.2 kmh W 12.0 mph19.3 kmh 29.77 in1008.1 mb 0.06 in1.5 mm 0.36 in/hr9.1 mm/hr 0.33 in8.4 mm
04:50 PM 70.1°F21.2°C 67.0°F19.4°C 90% 4.1 mph NW6.6 kmh NW 6.0 mph9.7 kmh 29.77 in1008.1 mb 0.02 in0.5 mm 0.12 in/hr3.0 mm/hr 0.35 in8.9 mm
05:00 PM 69.8°F21.0°C 66.4°F19.1°C 89% 10.3 mph NW16.6 kmh NW 17.0 mph27.4 kmh 29.77 in1008.1 mb 0.00 in0.0 mm 0.00 in/hr0.0 mm/hr 0.35 in8.9 mm
05:10 PM 70.5°F21.4°C 66.4°F19.1°C 87% 5.6 mph WNW9.0 kmh WNW 9.0 mph14.5 kmh 29.79 in1008.8 mb 0.00 in0.0 mm 0.00 in/hr0.0 mm/hr 0.35 in8.9 mm
05:20 PM 71.6°F22.0°C 67.2°F19.6°C 86% 1.3 mph NNW2.1 kmh NNW 3.0 mph4.8 kmh 29.79 in1008.8 mb 0.00 in0.0 mm 0.00 in/hr0.0 mm/hr 0.35 in8.9 mm
05:30 PM 70.9°F21.6°C 65.5°F18.6°C 83% 2.5 mph W4.0 kmh W 3.0 mph4.8 kmh 29.79 in1008.8 mb 0.00 in0.0 mm 0.00 in/hr0.0 mm/hr 0.35 in8.9 mm
05:40 PM 70.9°F21.6°C 64.4°F18.0°C 80% 3.9 mph WNW6.3 kmh WNW 6.0 mph9.7 kmh 29.80 in1009.1 mb 0.00 in0.0 mm 0.00 in/hr0.0 mm/hr 0.35 in8.9 mm
05:50 PM 70.8°F21.6°C 64.3°F17.9°C 80% 3.9 mph WNW6.3 kmh WNW 5.0 mph8.0 kmh 29.80 in1009.1 mb 0.00 in0.0 mm 0.00 in/hr0.0 mm/hr 0.35 in8.9 mm
06:00 PM 70.9°F21.6°C 64.1°F17.8°C 79% 0.1 mph NW0.2 kmh NW 1.0 mph1.6 kmh 29.80 in1009.1 mb 0.00 in0.0 mm 0.00 in/hr0.0 mm/hr 0.35 in8.9 mm
06:10 PM 70.9°F21.6°C 64.1°F17.8°C 79% Calm Calm -- 29.80 in1009.1 mb 0.00 in0.0 mm 0.00 in/hr0.0 mm/hr 0.35 in8.9 mm
06:20 PM 70.6°F21.4°C 63.8°F17.7°C 79% Calm Calm 1.0 mph1.6 kmh 29.80 in1009.1 mb 0.00 in0.0 mm 0.00 in/hr0.0 mm/hr 0.35 in8.9 mm
06:30 PM 70.4°F21.3°C 63.9°F17.7°C 80% 1.0 mph NE1.6 kmh NE 2.0 mph3.2 kmh 29.80 in1009.1 mb 0.00 in0.0 mm 0.00 in/hr0.0 mm/hr 0.35 in8.9 mm
06:40 PM 69.9°F21.1°C 63.8°F17.7°C 81% Calm Calm -- 29.80 in1009.1 mb 0.00 in0.0 mm 0.00 in/hr0.0 mm/hr 0.35 in8.9 mm
06:50 PM 69.8°F21.0°C 63.7°F17.6°C 81% 0.4 mph NNW0.6 kmh NNW -- 29.81 in1009.5 mb 0.00 in0.0 mm 0.00 in/hr0.0 mm/hr 0.35 in8.9 mm
07:00 PM 69.8°F21.0°C 63.7°F17.6°C 81% Calm Calm -- 29.82 in1009.8 mb 0.00 in0.0 mm 0.00 in/hr0.0 mm/hr 0.35 in8.9 mm
07:10 PM 69.6°F20.9°C 63.9°F17.7°C 82% 0.1 mph NNW0.2 kmh NNW 2.0 mph3.2 kmh 29.81 in1009.5 mb 0.00 in0.0 mm 0.00 in/hr0.0 mm/hr 0.35 in8.9 mm
07:20 PM 69.6°F20.9°C 63.5°F17.5°C 81% 0.5 mph NNW0.8 kmh NNW 1.0 mph1.6 kmh 29.82 in1009.8 mb 0.00 in0.0 mm 0.00 in/hr0.0 mm/hr 0.35 in8.9 mm
07:30 PM 69.9°F21.1°C 63.8°F17.7°C 81% 1.8 mph NNW2.9 kmh NNW 3.0 mph4.8 kmh 29.82 in1009.8 mb 0.00 in0.0 mm 0.00 in/hr0.0 mm/hr 0.35 in8.9 mm
07:40 PM 69.8°F21.0°C 63.7°F17.6°C 81% Calm Calm -- 29.83 in1010.2 mb 0.00 in0.0 mm 0.00 in/hr0.0 mm/hr 0.35 in8.9 mm
07:50 PM 69.4°F20.8°C 63.0°F17.2°C 80% 0.3 mph NNW0.5 kmh NNW 3.0 mph4.8 kmh 29.83 in1010.2 mb 0.00 in0.0 mm 0.00 in/hr0.0 mm/hr 0.35 in8.9 mm
08:00 PM 69.9°F21.1°C 62.4°F16.9°C 77% Calm Calm -- 29.83 in1010.2 mb 0.00 in0.0 mm 0.00 in/hr0.0 mm/hr 0.35 in8.9 mm
08:10 PM 69.8°F21.0°C 62.6°F17.0°C 78% Calm Calm -- 29.84 in1010.5 mb 0.00 in0.0 mm 0.00 in/hr0.0 mm/hr 0.35 in8.9 mm
08:20 PM 69.6°F20.9°C 62.8°F17.1°C 79% Calm Calm -- 29.84 in1010.5 mb 0.00 in0.0 mm 0.00 in/hr0.0 mm/hr 0.35 in8.9 mm
08:30 PM 69.6°F20.9°C 63.2°F17.3°C 80% Calm Calm -- 29.85 in1010.8 mb 0.00 in0.0 mm 0.00 in/hr0.0 mm/hr 0.35 in8.9 mm
08:40 PM 69.1°F20.6°C 63.0°F17.2°C 81% Calm Calm -- 29.85 in1010.8 mb 0.00 in0.0 mm 0.00 in/hr0.0 mm/hr 0.35 in8.9 mm
08:50 PM 68.8°F20.4°C 63.1°F17.3°C 82% Calm Calm -- 29.86 in1011.2 mb 0.00 in0.0 mm 0.00 in/hr0.0 mm/hr 0.35 in8.9 mm
09:00 PM 68.8°F20.4°C 63.1°F17.3°C 82% 2.6 mph NNW4.2 kmh NNW 5.0 mph8.0 kmh 29.86 in1011.2 mb 0.00 in0.0 mm 0.00 in/hr0.0 mm/hr 0.35 in8.9 mm
09:10 PM 69.8°F21.0°C 63.0°F17.2°C 79% Calm Calm -- 29.86 in1011.2 mb 0.00 in0.0 mm 0.00 in/hr0.0 mm/hr 0.35 in8.9 mm
09:20 PM 69.9°F21.1°C 63.1°F17.3°C 79% 0.1 mph NNW0.2 kmh NNW 1.0 mph1.6 kmh 29.87 in1011.5 mb 0.00 in0.0 mm 0.00 in/hr0.0 mm/hr 0.35 in8.9 mm
09:30 PM 69.6°F20.9°C 63.2°F17.3°C 80% 0.1 mph NNW0.2 kmh NNW -- 29.86 in1011.2 mb 0.00 in0.0 mm 0.00 in/hr0.0 mm/hr 0.35 in8.9 mm
09:40 PM 69.9°F21.1°C 62.7°F17.1°C 78% Calm Calm -- 29.87 in1011.5 mb 0.00 in0.0 mm 0.00 in/hr0.0 mm/hr 0.35 in8.9 mm
09:50 PM 70.1°F21.2°C 62.5°F16.9°C 77% 3.3 mph NW5.3 kmh NW 5.0 mph8.0 kmh 29.87 in1011.5 mb 0.00 in0.0 mm 0.00 in/hr0.0 mm/hr 0.35 in8.9 mm
10:00 PM 70.1°F21.2°C 62.6°F17.0°C 77% 2.1 mph NW3.4 kmh NW 3.0 mph4.8 kmh 29.88 in1011.9 mb 0.00 in0.0 mm 0.00 in/hr0.0 mm/hr 0.35 in8.9 mm
10:10 PM 69.8°F21.0°C 62.6°F17.0°C 78% 0.1 mph NW0.2 kmh NW -- 29.88 in1011.9 mb 0.00 in0.0 mm 0.00 in/hr0.0 mm/hr 0.35 in8.9 mm
10:20 PM 69.6°F20.9°C 62.8°F17.1°C 79% Calm Calm -- 29.87 in1011.5 mb 0.00 in0.0 mm 0.00 in/hr0.0 mm/hr 0.35 in8.9 mm
10:30 PM 69.3°F20.7°C 62.9°F17.2°C 80% Calm Calm -- 29.88 in1011.9 mb 0.00 in0.0 mm 0.00 in/hr0.0 mm/hr 0.35 in8.9 mm
10:40 PM 68.9°F20.5°C 62.8°F17.1°C 81% Calm Calm -- 29.88 in1011.9 mb 0.00 in0.0 mm 0.00 in/hr0.0 mm/hr 0.35 in8.9 mm
10:50 PM 68.6°F20.3°C 62.9°F17.2°C 82% Calm Calm -- 29.89 in1012.2 mb 0.00 in0.0 mm 0.00 in/hr0.0 mm/hr 0.35 in8.9 mm
11:00 PM 68.0°F20.0°C 63.0°F17.2°C 84% Calm Calm -- 29.89 in1012.2 mb 0.00 in0.0 mm 0.00 in/hr0.0 mm/hr 0.35 in8.9 mm
11:10 PM 67.3°F19.6°C 62.3°F16.8°C 84% Calm Calm -- 29.89 in1012.2 mb 0.00 in0.0 mm 0.00 in/hr0.0 mm/hr 0.35 in8.9 mm
11:20 PM 66.8°F19.3°C 62.5°F16.9°C 86% Calm Calm -- 29.89 in1012.2 mb 0.00 in0.0 mm 0.00 in/hr0.0 mm/hr 0.35 in8.9 mm
11:30 PM 66.6°F19.2°C 62.3°F16.8°C 86% Calm Calm -- 29.89 in1012.2 mb 0.00 in0.0 mm 0.00 in/hr0.0 mm/hr 0.35 in8.9 mm
11:40 PM 66.1°F18.9°C 62.1°F16.7°C 87% Calm Calm -- 29.90 in1012.5 mb 0.00 in0.0 mm 0.00 in/hr0.0 mm/hr 0.35 in8.9 mm
11:50 PM 65.5°F18.6°C 61.5°F16.4°C 87% Calm Calm -- 29.89 in1012.2 mb 0.00 in0.0 mm 0.00 in/hr0.0 mm/hr 0.35 in8.9 mm